Time;durP1;ratioP1;P1;durP2;ratioP2;P2;SDS_P1;SDS_P2;PMS_P1;PMS_P2;Temp;Humidity;BMP_temperature;BMP_pressure;BME280_temperature;BME280_humidity;BME280_pressure;Samples;Min_cycle;Max_cycle;Signal;HPM_P1;HPM_P2
2023/06/23 00:00:55;;;;;;;2.53;2.43;;;;;;;;;;4971064;28;20205;-84
2023/06/23 00:03:24;;;;;;;4.07;3.77;;;;;;;;;;4971381;28;20227;-84
2023/06/23 00:05:53;;;;;;;0.60;0.60;;;;;;;;;;4971117;28;20201;-84
2023/06/23 00:08:21;;;;;;;2.13;2.00;;;;;;;;;;4970922;28;20236;-84
2023/06/23 00:10:51;;;;;;;7.97;6.77;;;;;;;;;;4970990;28;20232;-84
2023/06/23 00:13:22;;;;;;;3.60;3.30;;;;;;;;;;4971292;28;20193;-84
2023/06/23 00:15:53;;;;;;;3.63;2.73;;;;;;;;;;4971308;28;20212;-84
2023/06/23 00:18:26;;;;;;;7.17;6.30;;;;;;;;;;4970993;28;20201;-84
2023/06/23 00:20:55;;;;;;;4.57;3.93;;;;;;;;;;4970897;28;20232;-84
2023/06/23 00:23:24;;;;;;;2.50;2.30;;;;;;;;;;4971071;28;20212;-84
2023/06/23 00:25:52;;;;;;;7.20;6.37;;;;;;;;;;4970596;28;20217;-84
2023/06/23 00:28:21;;;;;;;5.17;4.73;;;;;;;;;;4971094;28;20228;-84
2023/06/23 00:30:50;;;;;;;4.73;4.33;;;;;;;;;;4970979;28;20206;-84
2023/06/23 00:33:18;;;;;;;4.07;3.47;;;;;;;;;;4970859;28;20197;-84
2023/06/23 00:35:48;;;;;;;1.17;1.10;;;;;;;;;;4970685;28;20213;-87
2023/06/23 00:38:17;;;;;;;7.33;4.80;;;;;;;;;;4971281;28;20193;-86
2023/06/23 00:40:45;;;;;;;1.97;1.77;;;;;;;;;;4970935;28;20210;-86
2023/06/23 00:43:15;;;;;;;0.50;0.50;;;;;;;;;;4970866;28;20206;-86
2023/06/23 00:45:44;;;;;;;4.53;2.93;;;;;;;;;;4971138;28;20220;-86
2023/06/23 00:48:14;;;;;;;1.80;1.73;;;;;;;;;;4970999;28;20228;-86
2023/06/23 00:50:43;;;;;;;6.83;5.60;;;;;;;;;;4970739;28;20286;-86
2023/06/23 00:53:13;;;;;;;3.57;3.27;;;;;;;;;;4970173;28;20202;-86
2023/06/23 00:55:42;;;;;;;13.80;9.43;;;;;;;;;;4970953;28;20212;-86
2023/06/23 00:58:13;;;;;;;10.03;7.57;;;;;;;;;;4970867;28;20205;-86
2023/06/23 01:00:41;;;;;;;4.83;4.43;;;;;;;;;;4970553;28;20201;-86
2023/06/23 01:03:10;;;;;;;7.83;4.93;;;;;;;;;;4970676;28;20207;-86
2023/06/23 01:05:40;;;;;;;9.83;8.07;;;;;;;;;;4970969;28;20205;-87
2023/06/23 01:08:17;;;;;;;4.03;3.20;;;;;;;;;;4970768;28;20235;-86
2023/06/23 01:10:48;;;;;;;4.50;4.10;;;;;;;;;;4970605;28;20208;-86
2023/06/23 01:13:18;;;;;;;9.67;6.57;;;;;;;;;;4970825;28;20205;-86
2023/06/23 01:15:52;;;;;;;6.23;5.23;;;;;;;;;;4970655;28;20301;-86
2023/06/23 01:18:25;;;;;;;3.00;2.73;;;;;;;;;;4969978;28;20197;-86
2023/06/23 01:20:54;;;;;;;9.80;7.07;;;;;;;;;;4970453;28;20201;-86
2023/06/23 01:23:47;;;;;;;17.97;5.60;;;;;;;;;;4970291;28;20215;-86
2023/06/23 01:26:24;;;;;;;8.50;3.97;;;;;;;;;;4970271;28;20280;-86
2023/06/23 01:28:54;;;;;;;4.00;3.23;;;;;;;;;;4970458;28;20225;-84
2023/06/23 01:31:24;;;;;;;2.10;2.00;;;;;;;;;;4971051;28;20205;-86
2023/06/23 01:33:56;;;;;;;4.00;3.40;;;;;;;;;;4970229;28;20275;-84
2023/06/23 01:36:27;;;;;;;2.30;2.10;;;;;;;;;;4969663;28;20223;-84
2023/06/23 01:38:59;;;;;;;4.27;3.73;;;;;;;;;;4970003;28;20207;-84
2023/06/23 01:41:29;;;;;;;4.47;4.07;;;;;;;;;;4970225;28;20217;-84
2023/06/23 01:43:59;;;;;;;4.57;3.97;;;;;;;;;;4970059;28;20207;-84
2023/06/23 01:46:34;;;;;;;9.83;3.70;;;;;;;;;;4969966;28;20197;-84
2023/06/23 01:49:10;;;;;;;6.27;4.40;;;;;;;;;;4969664;28;20289;-84
2023/06/23 01:51:40;;;;;;;5.77;3.50;;;;;;;;;;4969358;28;20308;-84
2023/06/23 01:54:09;;;;;;;3.17;2.07;;;;;;;;;;4969747;28;20222;-84
2023/06/23 01:56:39;;;;;;;2.70;2.10;;;;;;;;;;4969836;28;20211;-84
2023/06/23 01:59:09;;;;;;;0.87;0.87;;;;;;;;;;4969702;28;20299;-84
2023/06/23 02:01:39;;;;;;;5.03;4.70;;;;;;;;;;4969254;28;20266;-84
2023/06/23 02:04:08;;;;;;;9.07;5.70;;;;;;;;;;4971683;28;20287;-84
2023/06/23 02:06:38;;;;;;;1.10;1.10;;;;;;;;;;4973203;28;20212;-84
2023/06/23 02:09:07;;;;;;;3.53;2.97;;;;;;;;;;4972731;28;20274;-84
2023/06/23 02:11:36;;;;;;;3.07;2.87;;;;;;;;;;4972556;28;20193;-84
2023/06/23 02:14:06;;;;;;;13.00;5.90;;;;;;;;;;4972704;28;20209;-84
2023/06/23 02:16:36;;;;;;;5.63;4.43;;;;;;;;;;4972708;28;20218;-84
2023/06/23 02:19:06;;;;;;;11.33;6.50;;;;;;;;;;4972290;28;20206;-84
2023/06/23 02:21:35;;;;;;;1.33;1.23;;;;;;;;;;4972672;28;20201;-84
2023/06/23 02:24:06;;;;;;;11.03;4.57;;;;;;;;;;4972623;28;20209;-84
2023/06/23 02:26:38;;;;;;;3.03;2.87;;;;;;;;;;4972500;28;20269;-84
2023/06/23 02:29:08;;;;;;;6.93;5.03;;;;;;;;;;4972726;28;20233;-84
2023/06/23 02:31:38;;;;;;;10.57;6.57;;;;;;;;;;4972724;28;20198;-84
2023/06/23 02:34:06;;;;;;;8.87;5.53;;;;;;;;;;4972582;28;20255;-84
2023/06/23 02:36:42;;;;;;;8.87;6.63;;;;;;;;;;4972522;28;20292;-84
2023/06/23 02:39:13;;;;;;;7.27;5.53;;;;;;;;;;4972651;28;20192;-84
2023/06/23 02:41:42;;;;;;;4.47;3.93;;;;;;;;;;4972354;28;20304;-84
2023/06/23 02:44:13;;;;;;;6.50;5.90;;;;;;;;;;4971949;28;20201;-84
2023/06/23 02:46:44;;;;;;;13.33;9.27;;;;;;;;;;4972593;28;20209;-84
2023/06/23 02:49:14;;;;;;;5.30;4.87;;;;;;;;;;4971910;28;20263;-84
2023/06/23 02:51:43;;;;;;;4.47;3.90;;;;;;;;;;4972272;28;20282;-84
2023/06/23 02:54:13;;;;;;;18.17;10.47;;;;;;;;;;4972173;28;20205;-84
2023/06/23 02:56:43;;;;;;;10.70;6.70;;;;;;;;;;4972324;28;20205;-84
2023/06/23 02:59:13;;;;;;;7.73;6.83;;;;;;;;;;4972167;28;20213;-84
2023/06/23 03:01:46;;;;;;;13.10;8.37;;;;;;;;;;4972027;28;20211;-86
2023/06/23 03:04:16;;;;;;;9.47;6.03;;;;;;;;;;4971941;28;20216;-86
2023/06/23 03:06:45;;;;;;;9.20;5.97;;;;;;;;;;4972544;28;20236;-86
2023/06/23 03:09:13;;;;;;;7.17;5.63;;;;;;;;;;4972176;28;20225;-86
2023/06/23 03:11:41;;;;;;;17.43;11.60;;;;;;;;;;4971868;28;20220;-86
2023/06/23 03:14:10;;;;;;;7.90;6.53;;;;;;;;;;4972395;28;20205;-87
2023/06/23 03:16:43;;;;;;;8.27;6.27;;;;;;;;;;4971815;28;20283;-84
2023/06/23 03:19:26;;;;;;;16.03;6.80;;;;;;;;;;4972053;28;20205;-84
2023/06/23 03:21:55;;;;;;;5.97;5.40;;;;;;;;;;4971880;28;20216;-84
2023/06/23 03:24:24;;;;;;;8.17;7.37;;;;;;;;;;4971816;28;20213;-84
2023/06/23 03:26:57;;;;;;;10.73;7.43;;;;;;;;;;4971769;28;20216;-84
2023/06/23 03:29:27;;;;;;;8.50;6.60;;;;;;;;;;4971773;28;20217;-84
2023/06/23 03:31:58;;;;;;;8.00;7.30;;;;;;;;;;4971909;28;20214;-84
2023/06/23 03:34:29;;;;;;;8.80;7.23;;;;;;;;;;4971504;28;20209;-84
2023/06/23 03:36:58;;;;;;;4.53;4.27;;;;;;;;;;4971478;28;20209;-84
2023/06/23 03:39:30;;;;;;;0.70;0.70;;;;;;;;;;4972018;28;20209;-84
2023/06/23 03:42:00;;;;;;;3.63;2.17;;;;;;;;;;4971081;28;20201;-84
2023/06/23 03:44:31;;;;;;;5.33;4.93;;;;;;;;;;4971124;28;20205;-84
2023/06/23 03:47:02;;;;;;;11.23;7.40;;;;;;;;;;4971440;28;20209;-84
2023/06/23 03:49:34;;;;;;;5.27;4.27;;;;;;;;;;4971282;28;20348;-84
2023/06/23 03:52:03;;;;;;;6.00;5.20;;;;;;;;;;4971533;28;20217;-84
2023/06/23 03:54:33;;;;;;;10.07;8.30;;;;;;;;;;4970996;28;20201;-84
2023/06/23 03:57:03;;;;;;;5.13;3.37;;;;;;;;;;4971488;28;20201;-84
2023/06/23 03:59:32;;;;;;;8.47;7.37;;;;;;;;;;4971384;28;20198;-84
2023/06/23 04:02:01;;;;;;;8.47;6.43;;;;;;;;;;4970955;28;20232;-84
2023/06/23 04:04:35;;;;;;;10.77;9.00;;;;;;;;;;4971680;28;20205;-86
2023/06/23 04:07:05;;;;;;;6.13;4.70;;;;;;;;;;4971331;28;20204;-87
2023/06/23 04:09:35;;;;;;;6.80;6.20;;;;;;;;;;4971289;28;20224;-86
2023/06/23 04:12:06;;;;;;;6.90;6.03;;;;;;;;;;4970899;28;20310;-86
2023/06/23 04:14:35;;;;;;;3.43;3.00;;;;;;;;;;4971671;28;20209;-86
2023/06/23 04:17:05;;;;;;;3.37;2.77;;;;;;;;;;4971686;28;20212;-87
2023/06/23 04:19:37;;;;;;;7.33;6.27;;;;;;;;;;4971151;28;20233;-87
2023/06/23 04:22:06;;;;;;;10.87;5.53;;;;;;;;;;4971365;28;20205;-86
2023/06/23 04:24:37;;;;;;;9.00;7.50;;;;;;;;;;4971367;28;20198;-86
2023/06/23 04:27:08;;;;;;;4.13;3.77;;;;;;;;;;4969788;28;20252;-86
2023/06/23 04:29:38;;;;;;;9.40;7.33;;;;;;;;;;4971383;28;20295;-84
2023/06/23 04:32:07;;;;;;;1.67;1.40;;;;;;;;;;4971047;28;20312;-86
2023/06/23 04:34:37;;;;;;;5.10;4.30;;;;;;;;;;4971438;28;20276;-86
2023/06/23 04:37:08;;;;;;;11.03;8.33;;;;;;;;;;4970649;28;20212;-86
2023/06/23 04:39:42;;;;;;;6.00;5.50;;;;;;;;;;4971319;28;20202;-86
2023/06/23 04:42:14;;;;;;;4.13;3.80;;;;;;;;;;4971390;28;20287;-85
2023/06/23 04:44:44;;;;;;;6.77;6.17;;;;;;;;;;4970744;28;20216;-85
2023/06/23 04:47:13;;;;;;;7.83;6.20;;;;;;;;;;4970801;28;20217;-86
2023/06/23 04:49:47;;;;;;;4.43;4.03;;;;;;;;;;4970875;28;20247;-86
2023/06/23 04:52:16;;;;;;;9.30;4.03;;;;;;;;;;4970282;28;20250;-86
2023/06/23 04:54:46;;;;;;;2.07;1.87;;;;;;;;;;4970189;28;20203;-86
2023/06/23 04:57:18;;;;;;;5.00;3.23;;;;;;;;;;4970829;28;20197;-86
2023/06/23 04:59:48;;;;;;;1.27;1.27;;;;;;;;;;4971213;28;20250;-86
2023/06/23 05:02:18;;;;;;;6.10;2.90;;;;;;;;;;4970266;28;20225;-86
2023/06/23 05:04:48;;;;;;;3.77;3.47;;;;;;;;;;4971118;28;20225;-86
2023/06/23 05:07:18;;;;;;;1.63;1.60;;;;;;;;;;4970675;28;20208;-86
2023/06/23 05:09:48;;;;;;;7.00;3.50;;;;;;;;;;4970749;28;20210;-86
2023/06/23 05:12:17;;;;;;;2.83;2.63;;;;;;;;;;4970301;28;20227;-86
2023/06/23 05:14:47;;;;;;;3.07;2.27;;;;;;;;;;4970974;28;20201;-86
2023/06/23 05:17:16;;;;;;;5.30;4.63;;;;;;;;;;4970880;28;20257;-86
2023/06/23 05:19:46;;;;;;;4.93;4.37;;;;;;;;;;4970197;28;20196;-86
2023/06/23 05:22:18;;;;;;;2.93;2.60;;;;;;;;;;4970238;28;20214;-86
2023/06/23 05:24:50;;;;;;;3.87;3.37;;;;;;;;;;4970663;28;20189;-86
2023/06/23 05:27:20;;;;;;;8.37;5.33;;;;;;;;;;4970640;28;20228;-85
2023/06/23 05:29:50;;;;;;;2.87;2.57;;;;;;;;;;4970298;28;20220;-86
2023/06/23 05:32:19;;;;;;;4.43;3.90;;;;;;;;;;4970707;28;20216;-85
2023/06/23 05:34:49;;;;;;;1.27;1.27;;;;;;;;;;4970672;28;20223;-86
2023/06/23 05:37:21;;;;;;;4.97;4.47;;;;;;;;;;4970045;28;20210;-86
2023/06/23 05:39:50;;;;;;;9.53;4.23;;;;;;;;;;4973426;28;20205;-86
2023/06/23 05:42:19;;;;;;;7.07;5.13;;;;;;;;;;4973564;28;20189;-87
2023/06/23 05:44:50;;;;;;;4.60;4.23;;;;;;;;;;4973817;28;20231;-86
2023/06/23 05:47:19;;;;;;;2.67;2.50;;;;;;;;;;4973917;28;20205;-86
2023/06/23 05:49:49;;;;;;;5.60;3.37;;;;;;;;;;4973458;28;20233;-86
2023/06/23 05:52:22;;;;;;;3.07;2.57;;;;;;;;;;4973723;28;20258;-86
2023/06/23 05:54:55;;;;;;;7.13;3.80;;;;;;;;;;4973448;28;20209;-86
2023/06/23 05:57:27;;;;;;;3.97;2.33;;;;;;;;;;4973184;28;20282;-86
2023/06/23 05:59:59;;;;;;;2.83;2.63;;;;;;;;;;4973852;28;20220;-87
2023/06/23 06:02:30;;;;;;;5.10;3.10;;;;;;;;;;4973296;28;20207;-86
2023/06/23 06:05:00;;;;;;;6.63;3.90;;;;;;;;;;4973345;28;20225;-87
2023/06/23 06:07:32;;;;;;;4.43;3.93;;;;;;;;;;4972621;28;20200;-83
2023/06/23 06:10:01;;;;;;;1.90;1.80;;;;;;;;;;4973663;28;20214;-85
2023/06/23 06:12:30;;;;;;;4.73;3.50;;;;;;;;;;4972498;28;20218;-85
2023/06/23 06:14:59;;;;;;;3.83;3.50;;;;;;;;;;4973339;28;20204;-85
2023/06/23 06:17:28;;;;;;;3.73;3.27;;;;;;;;;;4972667;28;20236;-83
2023/06/23 06:20:00;;;;;;;2.67;2.07;;;;;;;;;;4972752;28;20255;-83
2023/06/23 06:22:29;;;;;;;3.07;2.30;;;;;;;;;;4973095;28;20203;-83
2023/06/23 06:24:59;;;;;;;3.07;2.77;;;;;;;;;;4972752;28;20229;-85
2023/06/23 06:27:28;;;;;;;3.30;3.07;;;;;;;;;;4973145;28;20312;-84
2023/06/23 06:29:57;;;;;;;3.13;2.33;;;;;;;;;;4972736;28;20205;-83
2023/06/23 06:32:29;;;;;;;1.57;1.47;;;;;;;;;;4972452;28;20209;-83
2023/06/23 06:35:04;;;;;;;1.63;1.53;;;;;;;;;;4973071;28;20209;-82
2023/06/23 06:37:35;;;;;;;2.40;2.20;;;;;;;;;;4971966;28;20215;-82
2023/06/23 06:40:06;;;;;;;2.00;1.40;;;;;;;;;;4972824;28;20228;-81
2023/06/23 06:42:36;;;;;;;2.90;2.60;;;;;;;;;;4972444;28;20198;-82
2023/06/23 06:45:05;;;;;;;0.73;0.73;;;;;;;;;;4972312;28;20294;-82
2023/06/23 06:47:40;;;;;;;2.70;2.50;;;;;;;;;;4972253;28;20205;-82
2023/06/23 06:50:10;;;;;;;1.17;0.83;;;;;;;;;;4971287;28;20247;-84
2023/06/23 06:52:40;;;;;;;3.53;3.20;;;;;;;;;;4971802;28;20227;-84
2023/06/23 06:55:19;;;;;;;4.83;2.63;;;;;;;;;;4971896;28;20265;-85
2023/06/23 06:57:48;;;;;;;2.73;2.50;;;;;;;;;;4972656;28;20206;-84
2023/06/23 07:00:19;;;;;;;2.97;2.60;;;;;;;;;;4972336;28;20246;-85
2023/06/23 07:02:47;;;;;;;3.87;3.23;;;;;;;;;;4972050;28;20197;-84
2023/06/23 07:05:17;;;;;;;2.20;2.10;;;;;;;;;;4972318;28;20204;-84
2023/06/23 07:07:46;;;;;;;2.77;2.13;;;;;;;;;;4972392;28;20299;-84
2023/06/23 07:10:15;;;;;;;3.47;2.60;;;;;;;;;;4972402;28;20203;-84
2023/06/23 07:12:45;;;;;;;1.63;1.53;;;;;;;;;;4971461;28;20228;-84
2023/06/23 07:15:14;;;;;;;3.33;3.07;;;;;;;;;;4972648;28;20212;-84
2023/06/23 07:17:43;;;;;;;0.87;0.87;;;;;;;;;;4973435;28;20210;-85
2023/06/23 07:20:12;;;;;;;4.20;1.97;;;;;;;;;;4972248;28;20217;-85
2023/06/23 07:22:40;;;;;;;6.60;4.57;;;;;;;;;;4972504;28;20350;-85
2023/06/23 07:25:09;;;;;;;3.30;2.80;;;;;;;;;;4972494;28;20204;-85
2023/06/23 07:27:38;;;;;;;1.67;1.57;;;;;;;;;;4971774;28;20300;-84
2023/06/23 07:30:08;;;;;;;2.87;2.47;;;;;;;;;;4972123;28;20211;-85
2023/06/23 07:32:37;;;;;;;2.93;2.73;;;;;;;;;;4971678;28;20229;-84
2023/06/23 07:35:06;;;;;;;4.90;3.67;;;;;;;;;;4971901;28;20269;-85
2023/06/23 07:37:34;;;;;;;1.30;1.23;;;;;;;;;;4971519;28;20209;-84
2023/06/23 07:40:03;;;;;;;1.70;1.60;;;;;;;;;;4971881;28;20213;-85
2023/06/23 07:42:32;;;;;;;2.73;2.50;;;;;;;;;;4971583;28;20230;-85
2023/06/23 07:45:00;;;;;;;0.60;0.60;;;;;;;;;;4971505;28;20207;-85
2023/06/23 07:47:30;;;;;;;3.10;2.27;;;;;;;;;;4971383;28;20204;-85
2023/06/23 07:49:59;;;;;;;4.40;3.60;;;;;;;;;;4971799;28;20260;-85
2023/06/23 07:52:28;;;;;;;5.30;4.43;;;;;;;;;;4971252;28;20227;-85
2023/06/23 07:54:56;;;;;;;2.63;2.43;;;;;;;;;;4971285;28;20213;-85
2023/06/23 07:57:25;;;;;;;3.37;2.93;;;;;;;;;;4971402;28;20229;-84
2023/06/23 07:59:53;;;;;;;6.07;3.87;;;;;;;;;;4971294;28;20206;-84
2023/06/23 08:02:23;;;;;;;6.03;4.70;;;;;;;;;;4970912;28;20211;-85
2023/06/23 08:04:53;;;;;;;8.90;4.93;;;;;;;;;;4970902;28;20306;-85
2023/06/23 08:07:22;;;;;;;3.47;2.93;;;;;;;;;;4971249;28;20207;-85
2023/06/23 08:09:51;;;;;;;5.63;4.67;;;;;;;;;;4971287;28;20236;-85
2023/06/23 08:12:19;;;;;;;2.53;2.33;;;;;;;;;;4970406;28;20234;-85
2023/06/23 08:14:47;;;;;;;8.00;2.70;;;;;;;;;;4971252;28;20299;-85
2023/06/23 08:17:16;;;;;;;3.53;3.00;;;;;;;;;;4971279;28;20208;-85
2023/06/23 08:19:44;;;;;;;2.73;2.53;;;;;;;;;;4970947;28;20211;-85
2023/06/23 08:22:15;;;;;;;3.70;3.03;;;;;;;;;;4971147;28;20204;-85
2023/06/23 08:24:43;;;;;;;6.50;3.60;;;;;;;;;;4971116;28;20201;-85
2023/06/23 08:27:11;;;;;;;2.63;2.43;;;;;;;;;;4970852;28;20222;-85
2023/06/23 08:29:40;;;;;;;2.20;2.10;;;;;;;;;;4970516;28;20254;-85
2023/06/23 08:32:10;;;;;;;3.30;3.07;;;;;;;;;;4970767;28;20229;-85
2023/06/23 08:34:43;;;;;;;5.63;3.60;;;;;;;;;;4956624;28;20209;-84
2023/06/23 08:37:16;;;;;;;4.40;3.43;;;;;;;;;;4965156;28;20214;-85
2023/06/23 08:39:47;;;;;;;4.63;3.13;;;;;;;;;;4951834;28;20209;-85
2023/06/23 08:42:16;;;;;;;4.23;2.47;;;;;;;;;;4951804;28;20244;-85
2023/06/23 08:44:45;;;;;;;3.53;3.17;;;;;;;;;;4951696;28;20213;-85
2023/06/23 08:47:15;;;;;;;5.03;2.63;;;;;;;;;;4951127;28;20207;-85
2023/06/23 08:49:44;;;;;;;5.43;3.73;;;;;;;;;;4951320;28;20239;-85
2023/06/23 08:52:20;;;;;;;5.87;3.57;;;;;;;;;;4951465;28;20228;-84
2023/06/23 08:54:54;;;;;;;3.97;3.33;;;;;;;;;;4951456;28;20227;-85
2023/06/23 08:57:26;;;;;;;4.23;3.43;;;;;;;;;;4954121;28;20249;-85
2023/06/23 08:59:55;;;;;;;4.33;3.80;;;;;;;;;;4964833;28;20202;-86
2023/06/23 09:02:27;;;;;;;5.13;3.10;;;;;;;;;;4958250;28;20207;-85
2023/06/23 09:04:56;;;;;;;3.50;2.83;;;;;;;;;;4967134;28;20302;-85
2023/06/23 09:07:26;;;;;;;5.90;3.30;;;;;;;;;;4967302;28;20289;-87
2023/06/23 09:09:55;;;;;;;2.10;1.83;;;;;;;;;;4966734;28;20265;-86
2023/06/23 09:12:25;;;;;;;5.10;3.37;;;;;;;;;;4966337;28;20325;-86
2023/06/23 09:14:54;;;;;;;4.13;3.57;;;;;;;;;;5071211;28;20242;-86
2023/06/23 09:17:26;;;;;;;2.97;2.67;;;;;;;;;;5033625;28;20210;-86
2023/06/23 09:19:55;;;;;;;5.47;4.70;;;;;;;;;;4965089;28;20215;-86
2023/06/23 09:22:26;;;;;;;4.17;3.77;;;;;;;;;;4966923;28;20204;-85
2023/06/23 09:24:58;;;;;;;3.10;2.60;;;;;;;;;;4970461;28;20268;-86
2023/06/23 09:27:40;;;;;;;3.77;2.57;;;;;;;;;;4970844;28;20233;-86
2023/06/23 09:30:09;;;;;;;2.30;2.07;;;;;;;;;;4969362;28;20220;-86
2023/06/23 09:32:39;;;;;;;1.07;1.03;;;;;;;;;;4968246;28;20224;-86
2023/06/23 09:35:13;;;;;;;3.00;2.30;;;;;;;;;;4956265;28;20270;-86
2023/06/23 09:37:46;;;;;;;2.63;0.83;;;;;;;;;;4962764;28;20223;-86
2023/06/23 09:40:15;;;;;;;5.50;2.13;;;;;;;;;;4969663;28;20224;-86
2023/06/23 09:42:45;;;;;;;5.43;2.97;;;;;;;;;;4961589;28;20208;-83
2023/06/23 09:45:22;;;;;;;2.50;2.03;;;;;;;;;;5022382;28;20211;-83
2023/06/23 09:47:50;;;;;;;1.57;1.47;;;;;;;;;;5071175;28;20297;-84
2023/06/23 09:50:22;;;;;;;0.73;0.73;;;;;;;;;;5071289;28;20244;-83
2023/06/23 09:53:04;;;;;;;1.70;1.60;;;;;;;;;;5071183;28;20228;-83
2023/06/23 09:55:33;;;;;;;1.57;1.47;;;;;;;;;;4963848;28;20213;-83
2023/06/23 09:58:04;;;;;;;1.70;1.60;;;;;;;;;;4969804;28;20205;-82
2023/06/23 10:00:33;;;;;;;1.50;1.07;;;;;;;;;;4984072;28;20199;-83
2023/06/23 10:03:02;;;;;;;2.10;1.93;;;;;;;;;;5070735;28;20223;-82
2023/06/23 10:05:35;;;;;;;1.57;1.47;;;;;;;;;;5070828;28;20201;-86
2023/06/23 10:08:16;;;;;;;3.63;2.20;;;;;;;;;;4995370;28;20205;-86
2023/06/23 10:10:46;;;;;;;2.43;1.60;;;;;;;;;;4965319;28;20246;-86
2023/06/23 10:13:14;;;;;;;0.90;0.90;;;;;;;;;;4964318;28;20222;-85
2023/06/23 10:15:44;;;;;;;3.17;1.67;;;;;;;;;;4969790;28;20205;-85
2023/06/23 10:18:13;;;;;;;3.80;3.13;;;;;;;;;;4969914;28;20203;-86
2023/06/23 10:20:42;;;;;;;1.57;1.47;;;;;;;;;;4969211;28;20215;-85
2023/06/23 10:23:12;;;;;;;2.20;1.97;;;;;;;;;;4969434;28;20239;-85
2023/06/23 10:25:42;;;;;;;1.60;1.40;;;;;;;;;;4970876;28;20206;-82
2023/06/23 10:28:11;;;;;;;1.53;1.43;;;;;;;;;;4971832;28;20225;-83
2023/06/23 10:30:42;;;;;;;1.80;1.70;;;;;;;;;;4975862;28;20212;-82
2023/06/23 10:33:13;;;;;;;1.77;1.47;;;;;;;;;;4992254;28;20226;-83
2023/06/23 10:35:42;;;;;;;1.17;1.17;;;;;;;;;;4990651;28;20209;-83
2023/06/23 10:38:16;;;;;;;0.93;0.93;;;;;;;;;;4971522;28;20224;-83
2023/06/23 10:40:47;;;;;;;0.60;0.60;;;;;;;;;;4971463;28;20309;-83
2023/06/23 10:43:16;;;;;;;2.47;2.20;;;;;;;;;;4984376;28;20218;-85
2023/06/23 10:45:44;;;;;;;2.53;1.67;;;;;;;;;;5008525;28;20241;-84
2023/06/23 10:48:13;;;;;;;5.07;1.23;;;;;;;;;;4967100;28;20486;-82
2023/06/23 10:50:42;;;;;;;0.67;0.67;;;;;;;;;;4961467;28;20338;-83
2023/06/23 10:53:18;;;;;;;1.50;1.13;;;;;;;;;;4966333;28;20232;-83
2023/06/23 10:55:47;;;;;;;1.83;1.73;;;;;;;;;;4965620;28;20226;-83
2023/06/23 10:58:52;;;;;;;1.90;1.80;;;;;;;;;;4973496;28;20208;-86
2023/06/23 11:01:21;;;;;;;2.17;2.00;;;;;;;;;;4972230;28;20210;-86
2023/06/23 11:03:53;;;;;;;1.33;1.23;;;;;;;;;;4972494;28;20337;-85
2023/06/23 11:06:28;;;;;;;1.33;1.23;;;;;;;;;;4972178;28;20207;-85
2023/06/23 11:08:59;;;;;;;4.33;2.80;;;;;;;;;;4972524;28;20209;-86
2023/06/23 11:11:37;;;;;;;1.47;1.37;;;;;;;;;;4971673;28;20278;-86
2023/06/23 11:14:15;;;;;;;1.43;1.27;;;;;;;;;;4971575;28;20241;-85
2023/06/23 11:16:44;;;;;;;1.87;1.70;;;;;;;;;;4972438;28;20204;-85
2023/06/23 11:19:27;;;;;;;2.53;2.17;;;;;;;;;;4972578;28;20208;-86
2023/06/23 11:22:09;;;;;;;1.40;1.30;;;;;;;;;;4971364;28;20208;-85
2023/06/23 11:24:52;;;;;;;3.90;2.80;;;;;;;;;;4972156;28;20192;-85
2023/06/23 11:27:21;;;;;;;2.20;1.60;;;;;;;;;;4972585;28;20235;-85
2023/06/23 11:30:05;;;;;;;4.20;2.53;;;;;;;;;;4972227;28;20305;-85
2023/06/23 11:32:33;;;;;;;2.03;1.83;;;;;;;;;;4971740;28;20209;-85
2023/06/23 11:35:06;;;;;;;2.30;2.03;;;;;;;;;;4972193;28;20252;-85
2023/06/23 11:37:35;;;;;;;1.70;1.60;;;;;;;;;;4971482;28;20271;-86
2023/06/23 11:40:08;;;;;;;0.70;0.70;;;;;;;;;;4970332;28;20350;-86
2023/06/23 11:42:37;;;;;;;2.20;2.00;;;;;;;;;;4971508;28;20244;-86
2023/06/23 11:45:06;;;;;;;1.47;1.37;;;;;;;;;;4971841;28;20192;-85
2023/06/23 11:47:36;;;;;;;1.70;1.47;;;;;;;;;;4971555;28;20213;-86
2023/06/23 11:50:08;;;;;;;3.50;2.33;;;;;;;;;;4971772;28;20333;-85
2023/06/23 11:52:36;;;;;;;1.97;1.70;;;;;;;;;;4972171;28;20211;-85
2023/06/23 11:55:07;;;;;;;3.03;2.03;;;;;;;;;;4971649;28;20229;-86
2023/06/23 11:57:35;;;;;;;1.70;1.03;;;;;;;;;;4971449;28;20209;-85
2023/06/23 12:00:06;;;;;;;1.90;1.67;;;;;;;;;;4971966;28;20216;-86
2023/06/23 12:02:37;;;;;;;5.37;5.07;;;;;;;;;;4971723;28;20219;-86
2023/06/23 12:05:06;;;;;;;4.73;3.53;;;;;;;;;;4971478;28;20211;-83
2023/06/23 12:07:35;;;;;;;2.37;1.70;;;;;;;;;;4971269;28;20217;-83
2023/06/23 12:10:04;;;;;;;1.27;1.17;;;;;;;;;;4971446;28;20215;-83
2023/06/23 12:12:34;;;;;;;2.07;1.87;;;;;;;;;;4971583;28;20224;-83
2023/06/23 12:15:03;;;;;;;2.67;1.90;;;;;;;;;;4971157;28;20220;-83
2023/06/23 12:17:32;;;;;;;1.20;0.67;;;;;;;;;;4971446;28;20238;-83
2023/06/23 12:20:00;;;;;;;3.93;3.63;;;;;;;;;;4971478;28;20211;-85
2023/06/23 12:22:36;;;;;;;4.43;2.53;;;;;;;;;;4970790;28;20251;-86
2023/06/23 12:25:05;;;;;;;1.83;1.63;;;;;;;;;;4971566;28;20269;-85
2023/06/23 12:27:37;;;;;;;4.07;2.40;;;;;;;;;;4971174;28;20228;-85
2023/06/23 12:30:16;;;;;;;2.33;1.37;;;;;;;;;;4971144;28;20213;-85
2023/06/23 12:32:44;;;;;;;3.53;1.57;;;;;;;;;;4970891;28;20204;-85
2023/06/23 12:35:16;;;;;;;3.47;3.27;;;;;;;;;;4971231;28;20318;-86
2023/06/23 12:37:47;;;;;;;2.93;1.90;;;;;;;;;;4971172;28;20410;-86
2023/06/23 12:40:29;;;;;;;2.97;2.10;;;;;;;;;;4970703;28;20261;-85
2023/06/23 12:43:02;;;;;;;1.60;1.50;;;;;;;;;;4971001;28;20214;-85
2023/06/23 12:45:33;;;;;;;1.23;1.23;;;;;;;;;;4970790;28;20193;-83
2023/06/23 12:48:03;;;;;;;5.23;3.20;;;;;;;;;;4969595;28;20298;-83
2023/06/23 12:50:35;;;;;;;1.33;1.23;;;;;;;;;;4970506;28;20244;-83
2023/06/23 12:53:06;;;;;;;2.00;1.30;;;;;;;;;;4970652;28;20205;-83
2023/06/23 12:55:35;;;;;;;1.83;1.27;;;;;;;;;;4970633;28;20232;-83
2023/06/23 12:58:06;;;;;;;1.60;1.50;;;;;;;;;;4970397;28;20210;-82
2023/06/23 13:00:34;;;;;;;2.07;1.60;;;;;;;;;;4970309;28;20212;-83
2023/06/23 13:03:05;;;;;;;2.57;1.93;;;;;;;;;;4970737;28;20308;-83
2023/06/23 13:05:38;;;;;;;1.70;1.60;;;;;;;;;;4970163;28;20276;-83
2023/06/23 13:08:07;;;;;;;4.00;1.60;;;;;;;;;;4970540;28;20206;-86
2023/06/23 13:10:36;;;;;;;2.30;2.10;;;;;;;;;;4971190;28;20210;-86
2023/06/23 13:13:07;;;;;;;1.83;1.73;;;;;;;;;;4970529;28;20215;-85
2023/06/23 13:15:35;;;;;;;1.87;1.40;;;;;;;;;;4970547;28;20224;-86
2023/06/23 13:18:05;;;;;;;2.07;1.00;;;;;;;;;;4970633;28;20205;-86
2023/06/23 13:20:36;;;;;;;2.50;2.23;;;;;;;;;;4970829;28;20258;-85
2023/06/23 13:23:04;;;;;;;0.83;0.83;;;;;;;;;;4969939;28;20297;-86
2023/06/23 13:25:34;;;;;;;2.33;2.13;;;;;;;;;;4970565;28;20239;-87
2023/06/23 13:28:03;;;;;;;1.80;1.53;;;;;;;;;;4971005;28;20233;-86
2023/06/23 13:30:34;;;;;;;1.10;0.93;;;;;;;;;;4970806;28;20197;-87
2023/06/23 13:33:02;;;;;;;2.73;2.33;;;;;;;;;;4969821;28;20260;-87
2023/06/23 13:35:31;;;;;;;2.77;1.13;;;;;;;;;;4970428;28;20221;-86
2023/06/23 13:38:00;;;;;;;2.13;1.47;;;;;;;;;;4970553;28;20206;-87
2023/06/23 13:40:29;;;;;;;1.60;1.50;;;;;;;;;;4970246;28;20215;-86
2023/06/23 13:42:58;;;;;;;2.87;2.37;;;;;;;;;;4969949;28;20211;-87
2023/06/23 13:45:28;;;;;;;1.13;1.03;;;;;;;;;;4970408;28;20233;-87
2023/06/23 13:48:01;;;;;;;2.40;2.20;;;;;;;;;;4969923;28;20200;-87
2023/06/23 13:50:29;;;;;;;1.90;1.47;;;;;;;;;;4969925;28;20237;-87
2023/06/23 13:52:58;;;;;;;1.30;1.20;;;;;;;;;;4969919;28;20193;-87
2023/06/23 13:55:27;;;;;;;3.30;2.97;;;;;;;;;;4970210;28;20217;-87
2023/06/23 13:57:56;;;;;;;2.17;1.97;;;;;;;;;;4970236;28;20218;-86
2023/06/23 14:00:26;;;;;;;4.73;2.40;;;;;;;;;;4972540;28;20201;-86
2023/06/23 14:02:54;;;;;;;1.37;1.27;;;;;;;;;;4973914;28;20205;-86
2023/06/23 14:05:24;;;;;;;1.87;1.60;;;;;;;;;;4973364;28;20208;-86
2023/06/23 14:07:54;;;;;;;5.10;3.03;;;;;;;;;;4973523;28;20205;-87
2023/06/23 14:10:22;;;;;;;2.63;2.07;;;;;;;;;;4973590;28;20205;-87
2023/06/23 14:12:53;;;;;;;1.73;1.57;;;;;;;;;;4973125;28;20201;-84
2023/06/23 14:15:21;;;;;;;1.23;1.13;;;;;;;;;;4972368;28;20209;-85
2023/06/23 14:17:50;;;;;;;0.67;0.67;;;;;;;;;;4973088;28;20288;-84
2023/06/23 14:20:19;;;;;;;2.07;1.23;;;;;;;;;;4973333;28;20205;-87
2023/06/23 14:22:50;;;;;;;1.40;1.30;;;;;;;;;;4973319;28;20300;-87
2023/06/23 14:25:19;;;;;;;5.97;2.30;;;;;;;;;;4972862;28;20258;-87
2023/06/23 14:27:47;;;;;;;0.83;0.83;;;;;;;;;;4972977;28;20219;-87
2023/06/23 14:30:16;;;;;;;3.30;2.13;;;;;;;;;;4973028;28;20218;-87
2023/06/23 14:32:48;;;;;;;4.13;2.20;;;;;;;;;;4972621;28;20204;-87
2023/06/23 14:35:17;;;;;;;2.93;2.37;;;;;;;;;;4972629;28;20278;-87
2023/06/23 14:37:46;;;;;;;1.97;1.80;;;;;;;;;;4972934;28;20217;-87
2023/06/23 14:40:16;;;;;;;1.80;1.63;;;;;;;;;;4973095;28;20204;-87
2023/06/23 14:42:46;;;;;;;4.47;4.07;;;;;;;;;;4972598;28;20200;-86
2023/06/23 14:45:15;;;;;;;2.10;1.90;;;;;;;;;;4972684;28;20210;-87
2023/06/23 14:47:43;;;;;;;1.80;1.70;;;;;;;;;;4973000;28;20254;-87
2023/06/23 14:50:12;;;;;;;2.00;1.50;;;;;;;;;;4972249;28;20273;-87
2023/06/23 14:52:41;;;;;;;2.27;1.80;;;;;;;;;;4972835;28;20214;-87
2023/06/23 14:55:09;;;;;;;2.70;2.30;;;;;;;;;;4972983;28;20217;-87
2023/06/23 14:57:39;;;;;;;2.50;2.30;;;;;;;;;;4972635;28;20189;-87
2023/06/23 15:00:08;;;;;;;2.60;1.80;;;;;;;;;;4972209;28;20204;-87
2023/06/23 15:02:37;;;;;;;2.40;2.20;;;;;;;;;;4972931;28;20209;-87